Terminal Aerodrome Forecast
Issued by NWS

Home | Current Version | Previous Version | Text Only | Print | Product List | Glossary On
Versions: 1 2 3 4 5 6 7 8 9 10 11 12 13 14 15 16 17 18 19 20 21 22 23
000
FTUS43 KAPX 210500
TAFMBL
TAF
KMBL 210520Z 2106/2206 00000KT P6SM VCSH OVC050
     FM211300 VRB03KT P6SM VCSH BKN050
     FM212000 28007KT 5SM -SHRA OVC015
     FM220200 33007KT P6SM SCT008 OVC015
      AMD LTD TO CLD VIS AND WIND=

USA.gov is the U.S. government's official web portal to all federal, state and local government web resources and services.